createdAt,value
2023-03-24T00:02:07.703Z,98740.09
2023-03-24T00:04:37.014Z,98737.59
2023-03-24T00:08:07.819Z,98738.78
2023-03-24T00:11:04.600Z,98732.78
2023-03-24T00:13:38.423Z,98730.28
2023-03-24T00:16:12.538Z,98727.13
2023-03-24T00:18:41.656Z,98729.81
2023-03-24T00:21:11.829Z,98733.63
2023-03-24T00:23:43.933Z,98729.47
2023-03-24T00:26:15.529Z,98731.97
2023-03-24T00:28:49.424Z,98737.16
2023-03-24T00:31:19.050Z,98734.50
2023-03-24T00:33:51.413Z,98726.50
2023-03-24T00:36:22.239Z,98734.00
2023-03-24T00:38:50.685Z,98731.69
2023-03-24T00:41:20.665Z,98734.88
2023-03-24T00:43:50.466Z,98737.53
2023-03-24T00:46:28.236Z,98731.38
2023-03-24T00:49:03.938Z,98737.72
2023-03-24T00:51:39.716Z,98738.72
2023-03-24T00:54:10.721Z,98740.91
2023-03-24T00:56:41.140Z,98741.22
2023-03-24T00:59:11.034Z,98739.53
2023-03-24T01:01:41.479Z,98746.28
2023-03-24T01:04:10.769Z,98734.69
2023-03-24T01:06:41.305Z,98740.47
2023-03-24T01:09:10.867Z,98732.41
2023-03-24T01:11:41.659Z,98738.25
2023-03-24T01:21:54.594Z,98732.25
2023-03-24T01:24:25.743Z,98730.84
2023-03-24T01:26:54.250Z,98725.47
2023-03-24T01:29:22.527Z,98724.47
2023-03-24T01:31:51.234Z,98727.50
2023-03-24T01:34:20.216Z,98724.91
2023-03-24T01:36:49.633Z,98726.59
2023-03-24T01:39:18.118Z,98697.72
2023-03-24T01:41:46.354Z,98726.16
2023-03-24T01:44:46.940Z,98729.38
2023-03-24T01:47:15.963Z,98732.72
2023-03-24T01:49:47.397Z,98723.44
2023-03-24T01:52:23.125Z,98728.09
2023-03-24T01:55:08.172Z,98727.13
2023-03-24T01:57:47.327Z,98727.81
2023-03-24T02:00:18.488Z,98736.69
2023-03-24T02:03:24.142Z,98737.34
2023-03-24T02:06:04.956Z,98740.19
2023-03-24T02:10:23.691Z,98739.22
2023-03-24T02:12:52.002Z,98741.53
2023-03-24T02:15:21.220Z,98742.44
2023-03-24T03:55:01.068Z,98684.34
2023-03-24T03:57:29.752Z,98737.41
2023-03-24T04:00:20.682Z,98678.53
2023-03-24T04:04:08.108Z,98745.91
2023-03-24T04:07:24.547Z,98741.13
2023-03-24T04:10:31.343Z,98737.44
2023-03-24T04:13:28.590Z,98726.94
2023-03-24T04:16:33.074Z,98679.75
2023-03-24T04:19:46.852Z,98738.09
2023-03-24T04:22:26.757Z,98736.78
2023-03-24T04:25:29.603Z,98738.78
2023-03-24T04:28:10.158Z,98694.53
2023-03-24T04:30:45.966Z,98727.78
2023-03-24T04:33:48.843Z,98728.59
2023-03-24T04:36:35.257Z,98735.88
2023-03-24T04:39:28.341Z,98732.53
2023-03-24T04:42:04.413Z,98735.84
2023-03-24T04:44:33.829Z,98629.91
2023-03-24T04:47:32.171Z,98724.22
2023-03-24T04:50:31.552Z,98731.03
2023-03-24T04:53:04.303Z,98728.69
2023-03-24T04:55:37.889Z,98748.44
2023-03-24T04:58:06.256Z,98700.69
2023-03-24T05:00:36.975Z,98742.28
2023-03-24T05:03:05.522Z,98590.75
2023-03-24T05:05:34.117Z,98740.28
2023-03-24T05:08:02.176Z,98731.63
2023-03-24T05:10:30.401Z,98751.09
2023-03-24T05:12:59.030Z,98742.47
2023-03-24T05:15:27.379Z,98747.16
2023-03-24T05:18:07.351Z,98749.97
2023-03-24T05:20:35.378Z,98678.13
2023-03-24T05:23:13.889Z,98687.13
2023-03-24T05:25:45.894Z,98715.44
2023-03-24T05:28:14.556Z,98734.44
2023-03-24T05:30:43.519Z,98732.44
2023-03-24T05:33:24.997Z,98740.59
2023-03-24T05:35:53.164Z,98740.75
2023-03-24T05:38:21.464Z,98675.91
2023-03-24T05:40:58.556Z,98726.44
2023-03-24T05:43:30.903Z,98736.53
2023-03-24T05:46:08.935Z,98672.78
2023-03-24T05:48:37.196Z,98731.47
2023-03-24T05:51:15.161Z,98673.56
2023-03-24T05:53:43.665Z,98686.16
2023-03-24T05:56:32.882Z,98689.00
2023-03-24T05:59:22.856Z,98741.84
2023-03-24T06:01:56.997Z,98728.44
2023-03-24T06:04:32.810Z,98634.69
2023-03-24T06:07:09.509Z,98732.72
2023-03-24T06:09:42.615Z,98734.38
2023-03-24T06:12:16.424Z,98739.59
2023-03-24T06:14:56.157Z,98739.00
2023-03-24T06:17:25.952Z,98728.84
2023-03-24T06:20:04.916Z,98741.16
2023-03-24T06:22:46.169Z,98741.34
2023-03-24T06:25:20.934Z,98741.44
2023-03-24T06:28:06.885Z,98735.63
2023-03-24T06:30:35.157Z,98748.47
2023-03-24T06:33:08.247Z,98748.59
2023-03-24T06:35:37.719Z,98750.75
2023-03-24T06:38:09.873Z,98752.69
2023-03-24T06:40:38.707Z,98750.09
2023-03-24T06:43:07.991Z,98742.78
2023-03-24T06:45:40.304Z,98700.63
2023-03-24T06:48:12.352Z,98744.84
2023-03-24T06:50:41.334Z,98760.88
2023-03-24T06:53:11.572Z,98726.69
2023-03-24T06:55:40.327Z,98769.78
2023-03-24T06:58:10.587Z,98768.09
2023-03-24T07:01:00.418Z,98773.25
2023-03-24T07:03:34.280Z,98711.09
2023-03-24T07:06:18.856Z,98727.25
2023-03-24T07:08:52.563Z,98696.16
2023-03-24T07:11:23.652Z,98769.94
2023-03-24T07:13:55.484Z,98703.34
2023-03-24T07:16:24.230Z,98720.16
2023-03-24T07:19:04.953Z,98735.16
2023-03-24T07:21:37.409Z,98773.06
2023-03-24T07:24:07.289Z,98763.44
2023-03-24T07:26:55.262Z,98782.91
2023-03-24T07:29:25.733Z,98777.91
2023-03-24T07:32:19.767Z,98773.75
2023-03-24T07:34:50.788Z,98754.81
2023-03-24T07:37:19.143Z,98777.59
2023-03-24T07:39:47.929Z,98775.44
2023-03-24T07:42:16.811Z,98727.56
2023-03-24T07:45:14.289Z,98672.91
2023-03-24T07:47:46.810Z,98773.66
2023-03-24T07:50:15.731Z,98767.28
2023-03-24T07:52:49.709Z,98757.16
2023-03-24T07:55:21.467Z,98766.59
2023-03-24T07:58:00.264Z,98668.16
2023-03-24T08:00:32.909Z,98771.69
2023-03-24T08:03:14.808Z,98720.16
2023-03-24T08:06:01.224Z,98761.91
2023-03-24T08:08:41.350Z,98764.56
2023-03-24T08:11:09.727Z,98742.06
2023-03-24T08:13:38.365Z,98756.84
2023-03-24T08:16:07.216Z,98759.81
2023-03-24T08:18:36.029Z,98761.00
2023-03-24T08:21:05.205Z,98694.03
2023-03-24T08:23:33.794Z,98699.31
2023-03-24T08:26:05.212Z,98627.44
2023-03-24T08:28:33.549Z,98741.34
2023-03-24T08:31:01.847Z,98745.91
2023-03-24T08:33:30.195Z,98744.19
2023-03-24T08:36:01.060Z,98688.50
2023-03-24T08:38:32.921Z,98722.00
2023-03-24T08:41:06.983Z,98685.59
2023-03-24T08:43:38.186Z,98739.00
2023-03-24T08:46:11.216Z,98731.63
2023-03-24T08:48:41.551Z,98725.19
2023-03-24T08:51:14.922Z,98728.75
2023-03-24T08:53:43.841Z,98714.47
2023-03-24T08:56:12.014Z,98711.34
2023-03-24T08:58:40.744Z,98707.38
2023-03-24T09:01:10.098Z,98707.38
2023-03-24T09:03:40.100Z,98694.91
2023-03-24T09:06:09.396Z,98696.13
2023-03-24T09:08:38.595Z,98694.84
2023-03-24T09:11:14.050Z,98690.78
2023-03-24T09:13:43.145Z,98683.03
2023-03-24T09:16:11.803Z,98665.13
2023-03-24T09:18:40.511Z,98661.66
2023-03-24T09:21:09.389Z,98655.16
2023-03-24T09:23:38.026Z,98666.50
2023-03-24T09:26:07.600Z,98664.22
2023-03-24T09:28:36.835Z,98664.09
2023-03-24T09:31:07.155Z,98669.69
2023-03-24T09:33:35.874Z,98604.78
2023-03-24T09:36:05.699Z,98659.06
2023-03-24T09:38:35.313Z,98597.38
2023-03-24T09:41:23.398Z,98598.91
2023-03-24T09:43:55.235Z,98649.38
2023-03-24T09:46:47.648Z,98644.03
2023-03-24T09:49:30.684Z,98598.84
2023-03-24T09:52:09.854Z,98633.81
2023-03-24T09:54:49.047Z,98638.75
2023-03-24T09:57:38.129Z,98633.38
2023-03-24T10:00:32.898Z,98578.69
2023-03-24T10:03:26.163Z,98619.41
2023-03-24T10:06:26.126Z,98577.94
2023-03-24T10:09:32.315Z,98626.72
2023-03-24T10:12:27.710Z,98624.16
2023-03-24T10:15:37.122Z,98556.59
2023-03-24T10:18:29.534Z,98605.84
2023-03-24T10:21:14.931Z,98517.44
2023-03-24T10:24:14.145Z,98602.16
2023-03-24T10:27:16.414Z,98588.53
2023-03-24T10:29:46.768Z,98600.09
2023-03-24T10:32:25.006Z,98589.78
2023-03-24T10:35:09.809Z,98536.47
2023-03-24T10:37:38.626Z,98550.94
2023-03-24T10:40:18.760Z,98586.69
2023-03-24T10:43:06.987Z,98561.88
2023-03-24T10:45:44.253Z,98571.59
2023-03-24T10:48:14.879Z,98577.34
2023-03-24T10:50:49.195Z,98576.94
2023-03-24T10:53:20.087Z,98564.16
2023-03-24T10:55:49.242Z,98561.47
2023-03-24T10:58:41.914Z,98562.06
2023-03-24T11:01:31.848Z,98550.47
2023-03-24T11:04:05.633Z,98508.19
2023-03-24T11:06:34.609Z,98474.78
2023-03-24T11:09:22.227Z,98536.59
2023-03-24T11:11:52.630Z,98542.25
2023-03-24T11:14:29.142Z,98506.28
2023-03-24T11:17:12.928Z,98528.34
2023-03-24T11:19:51.505Z,98528.19
2023-03-24T11:25:13.745Z,98414.94
2023-03-24T11:27:45.949Z,98520.22
2023-03-24T11:30:16.067Z,98508.31
2023-03-24T11:32:48.705Z,98503.41
2023-03-24T11:35:18.845Z,98355.72
2023-03-24T11:37:48.452Z,98467.34
2023-03-24T11:40:25.197Z,98491.91
2023-03-24T11:43:00.851Z,98482.78
2023-03-24T11:45:44.287Z,98388.63
2023-03-24T11:48:41.792Z,98485.09
2023-03-24T11:51:13.002Z,98485.56
2023-03-24T11:53:51.932Z,98470.38
2023-03-24T11:56:53.200Z,98459.47
2023-03-24T12:00:04.377Z,98469.81
2023-03-24T12:02:52.788Z,98456.19
2023-03-24T12:05:33.314Z,98450.00
2023-03-24T12:08:49.570Z,98460.22
2023-03-24T12:11:54.497Z,98450.19
2023-03-24T12:15:24.723Z,98457.56
2023-03-24T12:18:26.298Z,98393.78
2023-03-24T12:21:01.645Z,98439.75
2023-03-24T12:23:53.167Z,98425.78
2023-03-24T12:26:22.980Z,98419.59
2023-03-24T12:29:24.465Z,98434.97
2023-03-24T12:32:44.377Z,98431.56
2023-03-24T12:35:30.888Z,98391.38
2023-03-24T12:38:23.082Z,98428.75
2023-03-24T12:41:18.864Z,98417.34
2023-03-24T12:44:43.550Z,98422.28
2023-03-24T12:47:45.445Z,98430.09
2023-03-24T12:50:38.508Z,98419.78
2023-03-24T12:53:56.306Z,98413.56
2023-03-24T12:56:42.479Z,98412.41
2023-03-24T12:59:36.521Z,98366.00
2023-03-24T13:02:31.738Z,98413.09
2023-03-24T13:05:30.687Z,98396.31
2023-03-24T13:08:06.017Z,98402.91
2023-03-24T13:10:42.351Z,98392.00
2023-03-24T13:13:25.299Z,98403.03
2023-03-24T13:16:13.336Z,98392.69
2023-03-24T13:18:51.426Z,98385.63
2023-03-24T13:21:26.987Z,98404.91
2023-03-24T13:24:04.111Z,98390.09
2023-03-24T13:26:43.554Z,98385.84
2023-03-24T13:29:53.605Z,98384.22
2023-03-24T13:32:22.582Z,98381.03
2023-03-24T13:35:19.160Z,98373.78
2023-03-24T13:38:14.207Z,98363.72
2023-03-24T13:40:46.132Z,98357.28
2023-03-24T13:43:22.770Z,98358.94
2023-03-24T13:46:13.973Z,98383.22
2023-03-24T13:48:51.906Z,98291.00
2023-03-24T13:51:38.363Z,98364.13
2023-03-24T13:54:15.991Z,98359.69
2023-03-24T13:57:13.162Z,98359.53
2023-03-24T13:59:58.535Z,98297.56
2023-03-24T14:02:30.266Z,98355.41
2023-03-24T14:05:04.152Z,98352.78
2023-03-24T14:07:41.605Z,98301.88
2023-03-24T14:10:21.333Z,98337.16
2023-03-24T14:12:58.407Z,98341.34
2023-03-24T14:15:29.722Z,98342.47
2023-03-24T14:18:23.595Z,98345.97
2023-03-24T14:20:57.759Z,98345.59
2023-03-24T14:23:51.689Z,98315.16
2023-03-24T14:26:23.373Z,98340.13
2023-03-24T14:28:53.803Z,98330.69
2023-03-24T14:31:31.619Z,98166.41
2023-03-24T14:34:21.386Z,98299.56
2023-03-24T14:37:07.813Z,98319.41
2023-03-24T14:39:42.039Z,98312.00
2023-03-24T14:42:31.800Z,98313.72
2023-03-24T14:45:22.253Z,98310.63
2023-03-24T14:48:08.202Z,98305.06
2023-03-24T14:50:37.195Z,98306.31
2023-03-24T14:53:06.408Z,98295.56
2023-03-24T14:55:35.161Z,98293.53
2023-03-24T14:58:17.979Z,98296.44
2023-03-24T15:01:07.016Z,98297.69
2023-03-24T15:03:39.463Z,98284.84
2023-03-24T15:06:13.760Z,98288.28
2023-03-24T15:08:50.270Z,98279.78
2023-03-24T15:22:42.172Z,98267.47
2023-03-24T15:25:13.680Z,98262.81
2023-03-24T15:27:49.455Z,98261.00
2023-03-24T15:30:18.262Z,98261.84
2023-03-24T15:32:47.859Z,98265.00
2023-03-24T15:35:22.723Z,98260.72
2023-03-24T15:37:57.502Z,98263.03
2023-03-24T15:40:31.131Z,98253.53
2023-03-24T15:43:02.591Z,98228.06
2023-03-24T15:45:36.347Z,98246.16
2023-03-24T15:48:20.780Z,98259.63
2023-03-24T15:51:11.799Z,98244.19
2023-03-24T15:53:51.753Z,98258.44
2023-03-24T15:56:31.937Z,98218.66
2023-03-24T15:59:15.225Z,98255.00
2023-03-24T16:01:45.324Z,98241.78
2023-03-24T16:04:20.737Z,98257.56
2023-03-24T16:43:42.086Z,98246.28
2023-03-24T16:46:21.357Z,98231.66
2023-03-24T16:48:49.641Z,98243.81
2023-03-24T16:51:18.509Z,98236.00
2023-03-24T16:53:47.087Z,98240.13
2023-03-24T16:56:18.307Z,98231.06
2023-03-24T16:58:48.224Z,98231.69
2023-03-24T17:01:29.495Z,98228.59
2023-03-24T17:04:11.115Z,98219.34
2023-03-24T17:06:47.626Z,98223.66
2023-03-24T17:09:16.979Z,98225.72
2023-03-24T17:11:54.637Z,98215.63
2023-03-24T17:14:22.911Z,98219.50
2023-03-24T17:16:53.497Z,98217.03
2023-03-24T17:37:03.126Z,98211.72
2023-03-24T17:39:31.247Z,98190.47
2023-03-24T17:42:01.534Z,98210.88
2023-03-24T17:44:30.132Z,98216.25
2023-03-24T17:46:58.575Z,98212.09
2023-03-24T17:49:27.220Z,98217.03
2023-03-24T18:01:08.128Z,98222.81
2023-03-24T18:03:38.383Z,98217.03
2023-03-24T18:06:12.740Z,98208.00
2023-03-24T18:08:41.612Z,98220.75
2023-03-24T18:11:15.677Z,98214.59
2023-03-24T18:13:44.387Z,98211.91
2023-03-24T18:16:21.363Z,98212.94
2023-03-24T18:18:51.967Z,98216.22
2023-03-24T18:21:21.201Z,98205.50
2023-03-24T18:23:50.382Z,98206.34
2023-03-24T18:26:20.445Z,98211.06
2023-03-24T18:28:49.227Z,98205.94
2023-03-24T18:31:20.761Z,98207.19
2023-03-24T18:33:50.520Z,98210.28
2023-03-24T18:36:26.925Z,98213.16
2023-03-24T18:39:05.511Z,98229.22
2023-03-24T18:41:37.325Z,98220.38
2023-03-24T18:44:08.987Z,98219.34
2023-03-24T18:53:52.814Z,98218.69
2023-03-24T22:21:40.894Z,98186.06
2023-03-24T22:24:09.941Z,98192.84
2023-03-24T22:26:38.601Z,98203.94
2023-03-24T22:29:07.588Z,98193.03
2023-03-24T22:49:00.764Z,98204.72
2023-03-24T22:51:31.680Z,98203.72
2023-03-24T22:54:00.413Z,98193.81
2023-03-24T22:56:29.479Z,98209.06
2023-03-24T22:58:58.966Z,98200.81
2023-03-24T23:01:28.167Z,98198.31
2023-03-24T23:03:57.045Z,98203.88
2023-03-24T23:06:25.353Z,98203.06
2023-03-24T23:08:53.939Z,98199.56
2023-03-24T23:40:24.661Z,98196.34
